sensor_id;sensor_type;location;lat;lon;timestamp;P1;durP1;ratioP1;P2;durP2;ratioP2
24273;SDS011;12392;42.678;23.380;2022-08-02T00:01:33;5.05;;;2.42;;
24273;SDS011;12392;42.678;23.380;2022-08-02T00:03:59;4.18;;;2.28;;
24273;SDS011;12392;42.678;23.380;2022-08-02T00:06:25;3.17;;;2.88;;
24273;SDS011;12392;42.678;23.380;2022-08-02T00:08:51;4.85;;;2.80;;
24273;SDS011;12392;42.678;23.380;2022-08-02T00:11:18;5.03;;;3.28;;
24273;SDS011;12392;42.678;23.380;2022-08-02T00:13:43;6.43;;;3.60;;
24273;SDS011;12392;42.678;23.380;2022-08-02T00:16:09;10.13;;;4.30;;
24273;SDS011;12392;42.678;23.380;2022-08-02T00:18:35;10.82;;;4.75;;
24273;SDS011;12392;42.678;23.380;2022-08-02T00:21:01;13.88;;;7.10;;
24273;SDS011;12392;42.678;23.380;2022-08-02T00:23:26;7.28;;;4.30;;
24273;SDS011;12392;42.678;23.380;2022-08-02T00:25:52;5.32;;;3.97;;
24273;SDS011;12392;42.678;23.380;2022-08-02T00:28:18;10.15;;;5.03;;
24273;SDS011;12392;42.678;23.380;2022-08-02T00:30:44;11.27;;;4.88;;
24273;SDS011;12392;42.678;23.380;2022-08-02T00:33:09;8.25;;;4.25;;
24273;SDS011;12392;42.678;23.380;2022-08-02T00:35:35;4.95;;;3.28;;
24273;SDS011;12392;42.678;23.380;2022-08-02T00:38:04;8.20;;;3.90;;
24273;SDS011;12392;42.678;23.380;2022-08-02T00:40:29;8.10;;;3.58;;
24273;SDS011;12392;42.678;23.380;2022-08-02T00:45:34;7.50;;;3.60;;
24273;SDS011;12392;42.678;23.380;2022-08-02T00:48:04;5.70;;;3.00;;
24273;SDS011;12392;42.678;23.380;2022-08-02T00:50:31;4.95;;;2.58;;
24273;SDS011;12392;42.678;23.380;2022-08-02T00:52:58;4.35;;;2.80;;
24273;SDS011;12392;42.678;23.380;2022-08-02T00:55:24;6.07;;;2.88;;
24273;SDS011;12392;42.678;23.380;2022-08-02T00:57:50;4.75;;;3.20;;
24273;SDS011;12392;42.678;23.380;2022-08-02T01:00:16;4.70;;;3.67;;
24273;SDS011;12392;42.678;23.380;2022-08-02T01:02:42;4.60;;;2.78;;
24273;SDS011;12392;42.678;23.380;2022-08-02T01:05:08;5.22;;;3.10;;
24273;SDS011;12392;42.678;23.380;2022-08-02T01:07:34;6.13;;;2.58;;
24273;SDS011;12392;42.678;23.380;2022-08-02T01:10:00;7.50;;;3.08;;
24273;SDS011;12392;42.678;23.380;2022-08-02T01:12:26;6.95;;;2.92;;
24273;SDS011;12392;42.678;23.380;2022-08-02T01:14:53;7.35;;;3.50;;
24273;SDS011;12392;42.678;23.380;2022-08-02T01:20:31;6.30;;;3.30;;
24273;SDS011;12392;42.678;23.380;2022-08-02T01:28:55;5.82;;;3.80;;
24273;SDS011;12392;42.678;23.380;2022-08-02T01:31:45;7.07;;;3.60;;
24273;SDS011;12392;42.678;23.380;2022-08-02T01:34:18;7.93;;;3.40;;
24273;SDS011;12392;42.678;23.380;2022-08-02T01:39:47;7.63;;;3.60;;
24273;SDS011;12392;42.678;23.380;2022-08-02T01:42:16;5.97;;;3.47;;
24273;SDS011;12392;42.678;23.380;2022-08-02T01:44:42;3.15;;;2.40;;
24273;SDS011;12392;42.678;23.380;2022-08-02T01:47:13;6.88;;;2.08;;
24273;SDS011;12392;42.678;23.380;2022-08-02T01:49:43;7.50;;;2.50;;
24273;SDS011;12392;42.678;23.380;2022-08-02T01:52:10;3.42;;;2.40;;
24273;SDS011;12392;42.678;23.380;2022-08-02T01:54:51;6.05;;;2.67;;
24273;SDS011;12392;42.678;23.380;2022-08-02T01:57:22;4.55;;;2.63;;
24273;SDS011;12392;42.678;23.380;2022-08-02T01:59:49;4.75;;;2.53;;
24273;SDS011;12392;42.678;23.380;2022-08-02T02:02:15;3.00;;;2.70;;
24273;SDS011;12392;42.678;23.380;2022-08-02T02:04:41;6.63;;;2.70;;
24273;SDS011;12392;42.678;23.380;2022-08-02T02:07:08;3.78;;;2.35;;
24273;SDS011;12392;42.678;23.380;2022-08-02T02:09:36;2.50;;;2.30;;
24273;SDS011;12392;42.678;23.380;2022-08-02T02:12:03;5.35;;;2.95;;
24273;SDS011;12392;42.678;23.380;2022-08-02T02:14:30;3.45;;;2.13;;
24273;SDS011;12392;42.678;23.380;2022-08-02T02:16:57;7.50;;;2.10;;
24273;SDS011;12392;42.678;23.380;2022-08-02T02:19:23;5.03;;;2.35;;
24273;SDS011;12392;42.678;23.380;2022-08-02T02:21:50;3.85;;;2.42;;
24273;SDS011;12392;42.678;23.380;2022-08-02T02:24:15;3.10;;;2.45;;
24273;SDS011;12392;42.678;23.380;2022-08-02T02:26:41;5.38;;;2.10;;
24273;SDS011;12392;42.678;23.380;2022-08-02T02:29:08;5.68;;;2.35;;
24273;SDS011;12392;42.678;23.380;2022-08-02T02:31:37;5.30;;;2.80;;
24273;SDS011;12392;42.678;23.380;2022-08-02T02:34:04;3.90;;;2.28;;
24273;SDS011;12392;42.678;23.380;2022-08-02T02:36:41;3.20;;;2.60;;
24273;SDS011;12392;42.678;23.380;2022-08-02T02:39:10;6.47;;;2.40;;
24273;SDS011;12392;42.678;23.380;2022-08-02T02:41:37;3.00;;;2.50;;
24273;SDS011;12392;42.678;23.380;2022-08-02T02:44:04;4.30;;;2.42;;
24273;SDS011;12392;42.678;23.380;2022-08-02T02:46:31;3.50;;;2.88;;
24273;SDS011;12392;42.678;23.380;2022-08-02T02:48:57;4.60;;;2.35;;
24273;SDS011;12392;42.678;23.380;2022-08-02T02:51:24;6.32;;;2.50;;
24273;SDS011;12392;42.678;23.380;2022-08-02T02:53:51;3.45;;;2.30;;
24273;SDS011;12392;42.678;23.380;2022-08-02T02:56:17;3.53;;;2.25;;
24273;SDS011;12392;42.678;23.380;2022-08-02T02:58:44;3.47;;;2.67;;
24273;SDS011;12392;42.678;23.380;2022-08-02T03:01:10;2.40;;;2.20;;
24273;SDS011;12392;42.678;23.380;2022-08-02T03:03:51;5.78;;;3.00;;
24273;SDS011;12392;42.678;23.380;2022-08-02T03:06:18;5.45;;;2.35;;
24273;SDS011;12392;42.678;23.380;2022-08-02T03:08:44;8.52;;;3.13;;
24273;SDS011;12392;42.678;23.380;2022-08-02T03:11:10;6.68;;;2.75;;
24273;SDS011;12392;42.678;23.380;2022-08-02T03:13:37;4.10;;;2.55;;
24273;SDS011;12392;42.678;23.380;2022-08-02T03:16:03;7.13;;;2.88;;
24273;SDS011;12392;42.678;23.380;2022-08-02T03:18:33;8.10;;;2.88;;
24273;SDS011;12392;42.678;23.380;2022-08-02T03:21:01;4.43;;;3.17;;
24273;SDS011;12392;42.678;23.380;2022-08-02T03:23:28;8.48;;;2.97;;
24273;SDS011;12392;42.678;23.380;2022-08-02T03:25:54;4.38;;;2.80;;
24273;SDS011;12392;42.678;23.380;2022-08-02T03:28:20;3.28;;;2.40;;
24273;SDS011;12392;42.678;23.380;2022-08-02T03:30:45;5.65;;;2.92;;
24273;SDS011;12392;42.678;23.380;2022-08-02T03:33:11;5.57;;;3.28;;
24273;SDS011;12392;42.678;23.380;2022-08-02T03:35:37;8.73;;;2.92;;
24273;SDS011;12392;42.678;23.380;2022-08-02T03:38:04;6.13;;;2.72;;
24273;SDS011;12392;42.678;23.380;2022-08-02T03:40:30;6.50;;;3.00;;
24273;SDS011;12392;42.678;23.380;2022-08-02T03:42:56;5.80;;;2.90;;
24273;SDS011;12392;42.678;23.380;2022-08-02T03:45:22;4.30;;;2.67;;
24273;SDS011;12392;42.678;23.380;2022-08-02T03:47:49;10.05;;;4.22;;
24273;SDS011;12392;42.678;23.380;2022-08-02T03:50:16;12.50;;;4.03;;
24273;SDS011;12392;42.678;23.380;2022-08-02T03:52:43;6.93;;;3.70;;
24273;SDS011;12392;42.678;23.380;2022-08-02T03:55:10;9.52;;;3.72;;
24273;SDS011;12392;42.678;23.380;2022-08-02T03:57:37;8.07;;;3.40;;
24273;SDS011;12392;42.678;23.380;2022-08-02T04:00:05;11.55;;;3.53;;
24273;SDS011;12392;42.678;23.380;2022-08-02T04:02:34;8.88;;;3.72;;
24273;SDS011;12392;42.678;23.380;2022-08-02T04:05:00;11.82;;;3.55;;
24273;SDS011;12392;42.678;23.380;2022-08-02T04:07:26;13.30;;;3.55;;
24273;SDS011;12392;42.678;23.380;2022-08-02T04:09:52;14.75;;;3.60;;
24273;SDS011;12392;42.678;23.380;2022-08-02T04:12:18;9.88;;;3.70;;
24273;SDS011;12392;42.678;23.380;2022-08-02T04:14:43;11.02;;;3.63;;
24273;SDS011;12392;42.678;23.380;2022-08-02T04:17:10;12.27;;;3.30;;
24273;SDS011;12392;42.678;23.380;2022-08-02T04:19:45;6.93;;;3.38;;
24273;SDS011;12392;42.678;23.380;2022-08-02T04:22:14;14.27;;;3.22;;
24273;SDS011;12392;42.678;23.380;2022-08-02T04:24:44;11.20;;;2.67;;
24273;SDS011;12392;42.678;23.380;2022-08-02T04:27:14;6.28;;;2.60;;
24273;SDS011;12392;42.678;23.380;2022-08-02T04:29:40;5.47;;;2.33;;
24273;SDS011;12392;42.678;23.380;2022-08-02T04:32:06;4.15;;;2.25;;
24273;SDS011;12392;42.678;23.380;2022-08-02T04:34:32;6.15;;;2.90;;
24273;SDS011;12392;42.678;23.380;2022-08-02T04:36:58;4.00;;;2.55;;
24273;SDS011;12392;42.678;23.380;2022-08-02T04:39:25;4.78;;;2.72;;
24273;SDS011;12392;42.678;23.380;2022-08-02T04:41:50;8.25;;;2.78;;
24273;SDS011;12392;42.678;23.380;2022-08-02T04:44:16;7.68;;;2.60;;
24273;SDS011;12392;42.678;23.380;2022-08-02T04:46:43;3.70;;;2.65;;
24273;SDS011;12392;42.678;23.380;2022-08-02T04:49:09;3.45;;;2.55;;
24273;SDS011;12392;42.678;23.380;2022-08-02T04:51:38;5.88;;;3.03;;
24273;SDS011;12392;42.678;23.380;2022-08-02T04:54:05;6.70;;;2.53;;
24273;SDS011;12392;42.678;23.380;2022-08-02T04:56:32;3.38;;;2.80;;
24273;SDS011;12392;42.678;23.380;2022-08-02T04:58:58;9.48;;;2.88;;
24273;SDS011;12392;42.678;23.380;2022-08-02T05:01:24;4.72;;;2.78;;
24273;SDS011;12392;42.678;23.380;2022-08-02T05:03:49;7.55;;;2.85;;
24273;SDS011;12392;42.678;23.380;2022-08-02T05:06:15;6.95;;;2.92;;
24273;SDS011;12392;42.678;23.380;2022-08-02T05:08:43;6.55;;;3.10;;
24273;SDS011;12392;42.678;23.380;2022-08-02T05:11:10;8.98;;;3.08;;
24273;SDS011;12392;42.678;23.380;2022-08-02T05:13:37;6.32;;;2.95;;
24273;SDS011;12392;42.678;23.380;2022-08-02T05:16:02;9.35;;;3.30;;
24273;SDS011;12392;42.678;23.380;2022-08-02T05:18:29;11.07;;;3.25;;
24273;SDS011;12392;42.678;23.380;2022-08-02T05:20:55;9.10;;;3.50;;
24273;SDS011;12392;42.678;23.380;2022-08-02T05:23:21;11.77;;;2.85;;
24273;SDS011;12392;42.678;23.380;2022-08-02T05:25:46;13.27;;;3.90;;
24273;SDS011;12392;42.678;23.380;2022-08-02T05:28:12;6.00;;;3.13;;
24273;SDS011;12392;42.678;23.380;2022-08-02T05:30:39;7.68;;;2.83;;
24273;SDS011;12392;42.678;23.380;2022-08-02T05:33:04;6.50;;;3.08;;
24273;SDS011;12392;42.678;23.380;2022-08-02T05:35:30;8.70;;;3.13;;
24273;SDS011;12392;42.678;23.380;2022-08-02T05:37:57;9.02;;;3.42;;
24273;SDS011;12392;42.678;23.380;2022-08-02T05:40:23;12.82;;;3.17;;
24273;SDS011;12392;42.678;23.380;2022-08-02T05:42:48;10.65;;;3.15;;
24273;SDS011;12392;42.678;23.380;2022-08-02T05:45:14;8.93;;;4.28;;
24273;SDS011;12392;42.678;23.380;2022-08-02T05:47:40;9.88;;;4.13;;
24273;SDS011;12392;42.678;23.380;2022-08-02T05:50:06;8.65;;;3.75;;
24273;SDS011;12392;42.678;23.380;2022-08-02T05:52:44;13.75;;;4.30;;
24273;SDS011;12392;42.678;23.380;2022-08-02T05:55:14;13.30;;;3.65;;
24273;SDS011;12392;42.678;23.380;2022-08-02T05:57:51;9.60;;;3.95;;
24273;SDS011;12392;42.678;23.380;2022-08-02T06:00:28;10.30;;;4.35;;
24273;SDS011;12392;42.678;23.380;2022-08-02T06:03:09;11.60;;;4.00;;
24273;SDS011;12392;42.678;23.380;2022-08-02T06:05:48;8.52;;;3.60;;
24273;SDS011;12392;42.678;23.380;2022-08-02T06:08:26;10.50;;;3.60;;
24273;SDS011;12392;42.678;23.380;2022-08-02T06:11:13;10.00;;;3.65;;
24273;SDS011;12392;42.678;23.380;2022-08-02T06:13:41;7.25;;;3.80;;
24273;SDS011;12392;42.678;23.380;2022-08-02T06:16:07;11.68;;;3.67;;
24273;SDS011;12392;42.678;23.380;2022-08-02T06:18:34;10.48;;;3.45;;
24273;SDS011;12392;42.678;23.380;2022-08-02T06:21:01;5.55;;;3.47;;
24273;SDS011;12392;42.678;23.380;2022-08-02T06:23:28;7.47;;;3.90;;
24273;SDS011;12392;42.678;23.380;2022-08-02T06:25:55;6.18;;;3.83;;
24273;SDS011;12392;42.678;23.380;2022-08-02T06:28:22;9.82;;;3.40;;
24273;SDS011;12392;42.678;23.380;2022-08-02T06:30:48;9.48;;;3.17;;
24273;SDS011;12392;42.678;23.380;2022-08-02T06:33:14;7.65;;;3.10;;
24273;SDS011;12392;42.678;23.380;2022-08-02T06:38:43;5.65;;;2.97;;
24273;SDS011;12392;42.678;23.380;2022-08-02T06:41:17;8.13;;;3.00;;
24273;SDS011;12392;42.678;23.380;2022-08-02T06:46:19;11.75;;;3.63;;
24273;SDS011;12392;42.678;23.380;2022-08-02T06:48:45;6.50;;;3.47;;
24273;SDS011;12392;42.678;23.380;2022-08-02T06:51:11;10.52;;;3.17;;
24273;SDS011;12392;42.678;23.380;2022-08-02T06:53:37;8.63;;;3.42;;
24273;SDS011;12392;42.678;23.380;2022-08-02T06:56:03;13.10;;;4.43;;
24273;SDS011;12392;42.678;23.380;2022-08-02T06:58:29;10.38;;;4.72;;
24273;SDS011;12392;42.678;23.380;2022-08-02T07:00:55;13.65;;;4.65;;
24273;SDS011;12392;42.678;23.380;2022-08-02T07:03:21;9.25;;;3.55;;
24273;SDS011;12392;42.678;23.380;2022-08-02T07:05:46;8.88;;;3.97;;
24273;SDS011;12392;42.678;23.380;2022-08-02T07:08:16;14.13;;;2.97;;
24273;SDS011;12392;42.678;23.380;2022-08-02T07:10:42;10.02;;;2.70;;
24273;SDS011;12392;42.678;23.380;2022-08-02T07:13:08;4.90;;;2.92;;
24273;SDS011;12392;42.678;23.380;2022-08-02T07:15:34;5.32;;;3.08;;
24273;SDS011;12392;42.678;23.380;2022-08-02T07:18:00;10.95;;;2.80;;
24273;SDS011;12392;42.678;23.380;2022-08-02T07:20:26;3.55;;;2.05;;
24273;SDS011;12392;42.678;23.380;2022-08-02T07:22:52;4.05;;;2.05;;
24273;SDS011;12392;42.678;23.380;2022-08-02T07:25:17;2.33;;;1.70;;
24273;SDS011;12392;42.678;23.380;2022-08-02T07:27:43;2.75;;;2.00;;
24273;SDS011;12392;42.678;23.380;2022-08-02T07:30:09;5.20;;;2.03;;
24273;SDS011;12392;42.678;23.380;2022-08-02T07:32:35;4.25;;;1.95;;
24273;SDS011;12392;42.678;23.380;2022-08-02T07:35:01;2.35;;;1.48;;
24273;SDS011;12392;42.678;23.380;2022-08-02T07:37:28;2.70;;;1.77;;
24273;SDS011;12392;42.678;23.380;2022-08-02T07:39:55;3.42;;;1.73;;
24273;SDS011;12392;42.678;23.380;2022-08-02T07:42:21;1.90;;;1.60;;
24273;SDS011;12392;42.678;23.380;2022-08-02T07:44:47;2.80;;;1.20;;
24273;SDS011;12392;42.678;23.380;2022-08-02T07:47:12;5.40;;;1.45;;
24273;SDS011;12392;42.678;23.380;2022-08-02T07:49:38;2.80;;;1.48;;
24273;SDS011;12392;42.678;23.380;2022-08-02T07:52:04;4.30;;;1.73;;
24273;SDS011;12392;42.678;23.380;2022-08-02T07:54:30;2.72;;;1.20;;
24273;SDS011;12392;42.678;23.380;2022-08-02T07:56:55;3.80;;;1.50;;
24273;SDS011;12392;42.678;23.380;2022-08-02T07:59:21;1.58;;;1.05;;
24273;SDS011;12392;42.678;23.380;2022-08-02T08:01:47;2.28;;;1.63;;
24273;SDS011;12392;42.678;23.380;2022-08-02T08:04:14;6.63;;;2.10;;
24273;SDS011;12392;42.678;23.380;2022-08-02T08:06:40;6.70;;;1.52;;
24273;SDS011;12392;42.678;23.380;2022-08-02T08:09:06;1.55;;;1.35;;
24273;SDS011;12392;42.678;23.380;2022-08-02T08:11:31;5.13;;;1.75;;
24273;SDS011;12392;42.678;23.380;2022-08-02T08:13:57;2.17;;;1.55;;
24273;SDS011;12392;42.678;23.380;2022-08-02T08:16:23;2.40;;;1.50;;
24273;SDS011;12392;42.678;23.380;2022-08-02T08:18:50;1.45;;;1.35;;
24273;SDS011;12392;42.678;23.380;2022-08-02T08:21:16;2.22;;;1.10;;
24273;SDS011;12392;42.678;23.380;2022-08-02T08:23:42;4.88;;;1.13;;
24273;SDS011;12392;42.678;23.380;2022-08-02T08:26:08;2.55;;;1.90;;
24273;SDS011;12392;42.678;23.380;2022-08-02T08:28:33;3.58;;;1.67;;
24273;SDS011;12392;42.678;23.380;2022-08-02T08:30:59;4.72;;;1.35;;
24273;SDS011;12392;42.678;23.380;2022-08-02T08:33:25;4.13;;;1.42;;
24273;SDS011;12392;42.678;23.380;2022-08-02T08:35:51;3.45;;;0.88;;
24273;SDS011;12392;42.678;23.380;2022-08-02T08:38:17;2.40;;;1.10;;
24273;SDS011;12392;42.678;23.380;2022-08-02T08:40:43;1.75;;;0.88;;
24273;SDS011;12392;42.678;23.380;2022-08-02T08:43:11;0.77;;;0.77;;
24273;SDS011;12392;42.678;23.380;2022-08-02T08:45:38;1.08;;;1.00;;
24273;SDS011;12392;42.678;23.380;2022-08-02T08:48:12;2.75;;;0.70;;
24273;SDS011;12392;42.678;23.380;2022-08-02T08:53:29;1.45;;;1.10;;
24273;SDS011;12392;42.678;23.380;2022-08-02T08:55:56;1.20;;;0.90;;
24273;SDS011;12392;42.678;23.380;2022-08-02T08:58:23;1.30;;;1.20;;
24273;SDS011;12392;42.678;23.380;2022-08-02T09:00:49;1.27;;;0.70;;
24273;SDS011;12392;42.678;23.380;2022-08-02T09:03:15;0.93;;;0.70;;
24273;SDS011;12392;42.678;23.380;2022-08-02T09:05:41;0.80;;;0.70;;
24273;SDS011;12392;42.678;23.380;2022-08-02T09:08:07;3.85;;;1.60;;
24273;SDS011;12392;42.678;23.380;2022-08-02T09:10:40;3.35;;;1.02;;
24273;SDS011;12392;42.678;23.380;2022-08-02T09:13:17;4.55;;;0.80;;
24273;SDS011;12392;42.678;23.380;2022-08-02T09:15:45;3.72;;;0.90;;
24273;SDS011;12392;42.678;23.380;2022-08-02T09:18:31;2.70;;;0.95;;
24273;SDS011;12392;42.678;23.380;2022-08-02T09:21:05;1.17;;;1.08;;
24273;SDS011;12392;42.678;23.380;2022-08-02T09:23:36;2.03;;;1.00;;
24273;SDS011;12392;42.678;23.380;2022-08-02T09:28:37;3.28;;;1.58;;
24273;SDS011;12392;42.678;23.380;2022-08-02T09:31:07;2.85;;;1.23;;
24273;SDS011;12392;42.678;23.380;2022-08-02T09:33:45;1.00;;;0.90;;
24273;SDS011;12392;42.678;23.380;2022-08-02T09:36:15;6.68;;;1.48;;
24273;SDS011;12392;42.678;23.380;2022-08-02T09:38:51;5.00;;;0.80;;
24273;SDS011;12392;42.678;23.380;2022-08-02T09:41:24;1.90;;;1.27;;
24273;SDS011;12392;42.678;23.380;2022-08-02T09:43:51;1.05;;;0.98;;
24273;SDS011;12392;42.678;23.380;2022-08-02T09:46:19;1.67;;;1.52;;
24273;SDS011;12392;42.678;23.380;2022-08-02T09:48:53;1.20;;;1.10;;
24273;SDS011;12392;42.678;23.380;2022-08-02T09:53:56;0.95;;;0.95;;
24273;SDS011;12392;42.678;23.380;2022-08-02T09:56:23;1.35;;;0.88;;
24273;SDS011;12392;42.678;23.380;2022-08-02T09:58:51;1.00;;;0.65;;
24273;SDS011;12392;42.678;23.380;2022-08-02T10:01:28;0.80;;;0.80;;
24273;SDS011;12392;42.678;23.380;2022-08-02T10:03:57;1.98;;;0.98;;
24273;SDS011;12392;42.678;23.380;2022-08-02T10:06:25;0.60;;;0.60;;
24273;SDS011;12392;42.678;23.380;2022-08-02T10:08:51;1.38;;;1.00;;
24273;SDS011;12392;42.678;23.380;2022-08-02T10:11:21;1.33;;;1.00;;
24273;SDS011;12392;42.678;23.380;2022-08-02T10:13:48;1.23;;;0.80;;
24273;SDS011;12392;42.678;23.380;2022-08-02T10:16:17;2.20;;;0.90;;
24273;SDS011;12392;42.678;23.380;2022-08-02T10:18:47;1.17;;;0.80;;
24273;SDS011;12392;42.678;23.380;2022-08-02T10:23:53;1.17;;;0.77;;
24273;SDS011;12392;42.678;23.380;2022-08-02T10:26:44;0.80;;;0.80;;
24273;SDS011;12392;42.678;23.380;2022-08-02T10:29:16;0.70;;;0.70;;
24273;SDS011;12392;42.678;23.380;2022-08-02T10:34:41;0.93;;;0.70;;
24273;SDS011;12392;42.678;23.380;2022-08-02T10:37:31;1.05;;;0.75;;
24273;SDS011;12392;42.678;23.380;2022-08-02T10:39:58;0.90;;;0.90;;
24273;SDS011;12392;42.678;23.380;2022-08-02T10:45:11;2.40;;;0.90;;
24273;SDS011;12392;42.678;23.380;2022-08-02T10:47:39;0.60;;;0.60;;
24273;SDS011;12392;42.678;23.380;2022-08-02T10:50:20;1.42;;;0.80;;
24273;SDS011;12392;42.678;23.380;2022-08-02T10:53:25;1.42;;;0.90;;
24273;SDS011;12392;42.678;23.380;2022-08-02T10:55:56;2.17;;;0.88;;
24273;SDS011;12392;42.678;23.380;2022-08-02T10:58:23;2.28;;;1.00;;
24273;SDS011;12392;42.678;23.380;2022-08-02T11:00:52;2.40;;;2.17;;
24273;SDS011;12392;42.678;23.380;2022-08-02T11:06:04;0.90;;;0.90;;
24273;SDS011;12392;42.678;23.380;2022-08-02T11:08:34;0.60;;;0.60;;
24273;SDS011;12392;42.678;23.380;2022-08-02T11:11:02;1.85;;;0.63;;
24273;SDS011;12392;42.678;23.380;2022-08-02T11:19:34;0.70;;;0.63;;
24273;SDS011;12392;42.678;23.380;2022-08-02T11:22:35;2.40;;;1.00;;
24273;SDS011;12392;42.678;23.380;2022-08-02T11:27:46;0.75;;;0.73;;
24273;SDS011;12392;42.678;23.380;2022-08-02T11:30:15;1.55;;;0.70;;
24273;SDS011;12392;42.678;23.380;2022-08-02T11:32:41;0.68;;;0.68;;
24273;SDS011;12392;42.678;23.380;2022-08-02T11:35:07;1.35;;;0.90;;
24273;SDS011;12392;42.678;23.380;2022-08-02T11:40:03;2.13;;;0.90;;
24273;SDS011;12392;42.678;23.380;2022-08-02T11:42:31;0.60;;;0.60;;
24273;SDS011;12392;42.678;23.380;2022-08-02T11:44:58;2.47;;;0.65;;
24273;SDS011;12392;42.678;23.380;2022-08-02T11:47:24;0.60;;;0.60;;
24273;SDS011;12392;42.678;23.380;2022-08-02T11:49:49;0.80;;;0.80;;
24273;SDS011;12392;42.678;23.380;2022-08-02T11:52:15;2.70;;;0.50;;
24273;SDS011;12392;42.678;23.380;2022-08-02T11:54:41;0.63;;;0.60;;
24273;SDS011;12392;42.678;23.380;2022-08-02T11:59:39;0.60;;;0.60;;
24273;SDS011;12392;42.678;23.380;2022-08-02T12:02:06;0.70;;;0.60;;
24273;SDS011;12392;42.678;23.380;2022-08-02T12:04:32;2.38;;;0.70;;
24273;SDS011;12392;42.678;23.380;2022-08-02T12:06:59;1.33;;;0.63;;
24273;SDS011;12392;42.678;23.380;2022-08-02T12:09:26;2.05;;;0.60;;
24273;SDS011;12392;42.678;23.380;2022-08-02T12:11:53;2.15;;;0.68;;
24273;SDS011;12392;42.678;23.380;2022-08-02T12:14:20;1.80;;;1.70;;
24273;SDS011;12392;42.678;23.380;2022-08-02T12:16:47;2.60;;;0.60;;
24273;SDS011;12392;42.678;23.380;2022-08-02T12:19:32;0.52;;;0.50;;
24273;SDS011;12392;42.678;23.380;2022-08-02T12:25:23;1.08;;;0.57;;
24273;SDS011;12392;42.678;23.380;2022-08-02T12:27:48;2.03;;;1.35;;
24273;SDS011;12392;42.678;23.380;2022-08-02T12:30:15;0.70;;;0.70;;
24273;SDS011;12392;42.678;23.380;2022-08-02T12:32:42;7.82;;;1.48;;
24273;SDS011;12392;42.678;23.380;2022-08-02T12:35:15;3.08;;;0.82;;
24273;SDS011;12392;42.678;23.380;2022-08-02T12:37:44;2.30;;;0.70;;
24273;SDS011;12392;42.678;23.380;2022-08-02T12:40:22;0.70;;;0.70;;
24273;SDS011;12392;42.678;23.380;2022-08-02T12:45:21;0.60;;;0.60;;
24273;SDS011;12392;42.678;23.380;2022-08-02T12:47:47;1.30;;;0.70;;
24273;SDS011;12392;42.678;23.380;2022-08-02T12:50:16;3.55;;;0.63;;
24273;SDS011;12392;42.678;23.380;2022-08-02T12:52:44;0.65;;;0.65;;
24273;SDS011;12392;42.678;23.380;2022-08-02T12:55:22;0.93;;;0.70;;
24273;SDS011;12392;42.678;23.380;2022-08-02T12:57:59;1.17;;;0.60;;
24273;SDS011;12392;42.678;23.380;2022-08-02T13:00:30;1.85;;;0.60;;
24273;SDS011;12392;42.678;23.380;2022-08-02T13:02:57;0.70;;;0.57;;
24273;SDS011;12392;42.678;23.380;2022-08-02T13:05:24;1.15;;;0.70;;
24273;SDS011;12392;42.678;23.380;2022-08-02T13:07:50;0.60;;;0.60;;
24273;SDS011;12392;42.678;23.380;2022-08-02T13:10:17;0.85;;;0.75;;
24273;SDS011;12392;42.678;23.380;2022-08-02T13:12:43;1.17;;;1.00;;
24273;SDS011;12392;42.678;23.380;2022-08-02T13:15:09;2.42;;;0.70;;
24273;SDS011;12392;42.678;23.380;2022-08-02T13:17:35;1.83;;;1.35;;
24273;SDS011;12392;42.678;23.380;2022-08-02T13:20:01;1.75;;;0.50;;
24273;SDS011;12392;42.678;23.380;2022-08-02T13:22:28;1.00;;;0.80;;
24273;SDS011;12392;42.678;23.380;2022-08-02T13:24:53;0.90;;;0.90;;
24273;SDS011;12392;42.678;23.380;2022-08-02T13:27:19;0.93;;;0.73;;
24273;SDS011;12392;42.678;23.380;2022-08-02T13:29:45;1.70;;;0.80;;
24273;SDS011;12392;42.678;23.380;2022-08-02T13:32:11;1.48;;;0.70;;
24273;SDS011;12392;42.678;23.380;2022-08-02T13:34:36;0.60;;;0.60;;
24273;SDS011;12392;42.678;23.380;2022-08-02T13:37:02;0.68;;;0.60;;
24273;SDS011;12392;42.678;23.380;2022-08-02T13:39:28;0.77;;;0.75;;
24273;SDS011;12392;42.678;23.380;2022-08-02T13:41:54;1.05;;;0.80;;
24273;SDS011;12392;42.678;23.380;2022-08-02T13:44:20;0.90;;;0.75;;
24273;SDS011;12392;42.678;23.380;2022-08-02T13:46:46;5.97;;;1.75;;
24273;SDS011;12392;42.678;23.380;2022-08-02T13:49:12;1.77;;;1.50;;
24273;SDS011;12392;42.678;23.380;2022-08-02T13:51:38;7.63;;;1.10;;
24273;SDS011;12392;42.678;23.380;2022-08-02T13:54:04;1.42;;;0.93;;
24273;SDS011;12392;42.678;23.380;2022-08-02T13:56:29;2.38;;;0.77;;
24273;SDS011;12392;42.678;23.380;2022-08-02T13:58:55;2.63;;;0.60;;
24273;SDS011;12392;42.678;23.380;2022-08-02T14:01:24;0.80;;;0.60;;
24273;SDS011;12392;42.678;23.380;2022-08-02T14:03:50;4.40;;;1.67;;
24273;SDS011;12392;42.678;23.380;2022-08-02T14:06:18;1.00;;;0.95;;
24273;SDS011;12392;42.678;23.380;2022-08-02T14:08:47;1.15;;;0.57;;
24273;SDS011;12392;42.678;23.380;2022-08-02T14:11:13;1.10;;;1.00;;
24273;SDS011;12392;42.678;23.380;2022-08-02T14:13:39;2.28;;;0.75;;
24273;SDS011;12392;42.678;23.380;2022-08-02T14:16:05;6.15;;;0.60;;
24273;SDS011;12392;42.678;23.380;2022-08-02T14:18:30;0.70;;;0.70;;
24273;SDS011;12392;42.678;23.380;2022-08-02T14:20:56;1.30;;;0.63;;
24273;SDS011;12392;42.678;23.380;2022-08-02T14:23:22;0.63;;;0.63;;
24273;SDS011;12392;42.678;23.380;2022-08-02T14:25:47;3.85;;;0.73;;
24273;SDS011;12392;42.678;23.380;2022-08-02T14:28:14;0.80;;;0.80;;
24273;SDS011;12392;42.678;23.380;2022-08-02T14:30:40;0.50;;;0.50;;
24273;SDS011;12392;42.678;23.380;2022-08-02T14:33:05;3.50;;;1.10;;
24273;SDS011;12392;42.678;23.380;2022-08-02T14:35:31;0.60;;;0.60;;
24273;SDS011;12392;42.678;23.380;2022-08-02T14:37:57;0.70;;;0.70;;
24273;SDS011;12392;42.678;23.380;2022-08-02T14:40:23;0.68;;;0.60;;
24273;SDS011;12392;42.678;23.380;2022-08-02T14:42:50;2.17;;;0.50;;
24273;SDS011;12392;42.678;23.380;2022-08-02T14:45:16;1.95;;;0.70;;
24273;SDS011;12392;42.678;23.380;2022-08-02T14:47:45;1.88;;;0.80;;
24273;SDS011;12392;42.678;23.380;2022-08-02T14:50:12;0.93;;;0.85;;
24273;SDS011;12392;42.678;23.380;2022-08-02T14:52:38;3.83;;;0.70;;
24273;SDS011;12392;42.678;23.380;2022-08-02T14:55:04;0.80;;;0.70;;
24273;SDS011;12392;42.678;23.380;2022-08-02T14:57:30;0.47;;;0.45;;
24273;SDS011;12392;42.678;23.380;2022-08-02T14:59:56;0.40;;;0.40;;
24273;SDS011;12392;42.678;23.380;2022-08-02T15:02:25;0.52;;;0.50;;
24273;SDS011;12392;42.678;23.380;2022-08-02T15:04:53;2.55;;;0.77;;
24273;SDS011;12392;42.678;23.380;2022-08-02T15:07:19;0.70;;;0.70;;
24273;SDS011;12392;42.678;23.380;2022-08-02T15:09:45;2.30;;;0.70;;
24273;SDS011;12392;42.678;23.380;2022-08-02T15:12:11;2.05;;;0.60;;
24273;SDS011;12392;42.678;23.380;2022-08-02T15:14:37;1.27;;;0.60;;
24273;SDS011;12392;42.678;23.380;2022-08-02T15:17:03;0.85;;;0.85;;
24273;SDS011;12392;42.678;23.380;2022-08-02T15:19:29;1.75;;;0.70;;
24273;SDS011;12392;42.678;23.380;2022-08-02T15:21:55;0.70;;;0.70;;
24273;SDS011;12392;42.678;23.380;2022-08-02T15:24:21;1.40;;;0.70;;
24273;SDS011;12392;42.678;23.380;2022-08-02T15:26:47;2.05;;;0.60;;
24273;SDS011;12392;42.678;23.380;2022-08-02T15:29:14;0.80;;;0.73;;
24273;SDS011;12392;42.678;23.380;2022-08-02T15:31:43;0.60;;;0.60;;
24273;SDS011;12392;42.678;23.380;2022-08-02T15:34:08;1.90;;;1.80;;
24273;SDS011;12392;42.678;23.380;2022-08-02T15:36:34;2.15;;;1.40;;